Latest Weather Observations for Lucas Heights (ANSTO)

IDN60801

Issued at 1:32 pm EST Saturday 15 June 2024 (issued every 10 minutes, with the page automatically refreshed every 10 minutes)

About weather observations | Map of weather stations | Latest weather observations for NSW | Other Formats
Station Details ID: 066023 Name: LUCAS HEIGHTS (ANSTO) Lat: -34.05 Lon: 150.98 Height: 140.0 m
Data from the previous 72 hours. | See also: Recent months for locations in New South Wales
Date/Time
EST
Temp
°C
App
Temp
°C
Dew
Point
°C
Rel
Hum
%
Delta-T
°C
Wind Press
QNH
hPa
Press
MSL
hPa
Rain since
9am
mm
Dir  Spd
km/h
Gust
km/h
Spd
kts
Gust
kts
15/01:15pm 12.9 9.8 9.0 77 2.0 S 15 28 8 15 1016.0 - 0.2
15/01:00pm 12.7 10.0 9.0 78 1.9 S 13 20 7 11 1016.2 - 0.2
15/12:45pm 12.7 10.0 8.9 77 1.9 S 13 20 7 11 1016.4 - 0.2
15/12:30pm 12.9 9.5 9.2 78 1.9 S 17 30 9 16 1016.5 - 0.2
15/12:15pm 12.8 10.3 9.7 81 1.6 S 13 20 7 11 1016.7 - 0.2
15/11:45am 12.4 10.4 10.0 85 1.2 S 11 17 6 9 1017.1 - 0.2
15/11:30am 11.9 10.2 9.8 87 1.1 SSW 9 13 5 7 1017.3 - 0.2
15/11:15am 11.6 9.0 9.5 87 1.1 SSW 13 17 7 9 1017.5 - 0.2
15/11:00am 11.4 8.8 9.3 87 1.1 SSW 13 20 7 11 1017.5 - 0.2
15/10:45am 11.2 7.9 9.4 89 0.9 S 17 26 9 14 1017.7 - 0.2
15/10:30am 11.1 8.2 9.5 90 0.8 S 15 22 8 12 1017.8 - 0.2
15/10:15am 11.1 8.2 9.5 90 0.8 S 15 24 8 13 1017.9 - 0.2
15/10:00am 11.0 8.4 9.5 90 0.8 S 13 22 7 12 1018.0 - 0.2
15/09:45am 10.9 7.9 9.4 90 0.8 S 15 22 8 12 1017.9 - 0.2
15/09:30am 10.9 7.2 9.5 91 0.7 S 19 30 10 16 1017.8 - 0.0
15/09:15am 10.6 8.0 9.4 92 0.6 S 13 19 7 10 1017.8 - 0.0
15/09:00am 10.3 7.7 9.2 93 0.6 S 13 17 7 9 1017.7 - 26.8
15/08:45am 10.1 7.8 9.0 93 0.5 S 11 15 6 8 1017.6 - 26.8
15/08:30am 9.9 7.2 8.9 93 0.5 S 13 17 7 9 1017.5 - 26.8
15/08:15am 9.8 6.7 8.8 93 0.5 SW 15 20 8 11 1017.5 - 26.8
15/08:00am 9.8 7.0 8.7 93 0.5 SW 13 15 7 8 1017.4 - 26.8
15/07:45am 9.8 7.0 8.7 93 0.5 SW 13 17 7 9 1017.3 - 26.8
15/07:30am 9.8 6.3 8.8 93 0.5 SSW 17 20 9 11 1017.3 - 26.8
15/07:15am 9.8 6.7 8.8 93 0.5 SSW 15 22 8 12 1017.4 - 26.8
15/07:00am 9.7 6.9 8.7 93 0.5 S 13 17 7 9 1017.3 - 26.8
15/06:45am 9.7 7.3 8.6 93 0.5 S 11 15 6 8 1017.3 - 26.6
15/06:30am 9.8 6.7 8.7 93 0.5 SSE 15 22 8 12 1017.2 - 26.6
15/06:15am 9.8 6.3 8.9 94 0.4 S 17 26 9 14 1017.1 - 26.1
15/06:00am 9.9 6.5 9.1 95 0.4 S 17 33 9 18 1017.0 - 26.1
15/05:45am 10.0 7.3 9.1 94 0.4 S 13 20 7 11 1016.9 - 25.7
15/05:30am 10.0 7.7 9.1 94 0.4 S 11 19 6 10 1016.8 - 25.7
15/05:15am 10.0 7.3 9.1 94 0.4 S 13 20 7 11 1016.9 - 25.6
15/05:00am 9.9 7.2 9.1 95 0.4 S 13 19 7 10 1016.8 - 25.4
15/04:45am 10.0 7.7 9.1 94 0.4 S 11 15 6 8 1016.7 - 25.4
15/04:30am 10.0 7.7 9.1 94 0.4 S 11 17 6 9 1016.8 - 25.2
15/04:15am 10.0 7.7 9.1 94 0.4 S 11 19 6 10 1016.8 - 24.8
15/04:00am 10.1 7.5 9.2 94 0.4 S 13 22 7 12 1016.8 - 24.7
15/03:45am 10.1 7.1 9.3 95 0.4 S 15 22 8 12 1016.8 - 24.1
15/03:30am 10.2 7.6 9.4 95 0.4 S 13 17 7 9 1016.9 - 23.4
15/03:15am 10.2 8.0 9.3 94 0.5 S 11 19 6 10 1016.9 - 22.7
15/03:00am 10.2 7.6 9.4 95 0.4 S 13 15 7 8 1016.8 - 22.3
15/02:45am 10.2 8.0 9.4 95 0.4 S 11 15 6 8 1016.8 - 22.0
15/02:30am 10.3 7.7 9.5 95 0.4 S 13 20 7 11 1016.9 - 22.0
15/02:15am 10.3 7.7 9.5 95 0.4 S 13 17 7 9 1017.0 - 21.8
15/02:00am 10.3 8.5 9.5 95 0.4 S 9 15 5 8 1017.0 - 21.4
15/01:45am 10.3 8.1 9.5 95 0.4 S 11 15 6 8 1017.1 - 21.2
15/01:30am 10.3 8.1 9.5 95 0.4 S 11 17 6 9 1017.2 - 21.1
15/01:15am 10.3 8.9 9.5 95 0.4 S 7 15 4 8 1017.2 - 19.8
15/01:00am 10.4 9.0 9.5 94 0.5 S 7 13 4 7 1017.3 - 19.1
15/12:45am 10.4 9.0 9.6 95 0.4 S 7 13 4 7 1017.4 - 18.4
15/12:30am 10.4 9.0 9.6 95 0.4 S 7 11 4 6 1017.5 - 16.9
15/12:00am 10.5 9.1 9.6 94 0.5 S 7 15 4 8 1017.7 - 15.5
 
Date/Time
EST
Temp
°C
App
Temp
°C
Dew
Point
°C
Rel
Hum
%
Delta-T
°C
Wind Press
QNH
hPa
Press
MSL
hPa
Rain since
9am
mm
Dir  Spd
km/h
Gust
km/h
Spd
kts
Gust
kts
14/11:45pm 10.5 8.0 9.6 94 0.5 S 13 15 7 8 1017.7 - 13.9
14/11:30pm 10.5 8.4 9.6 94 0.5 S 11 15 6 8 1017.9 - 13.1
14/11:15pm 10.6 8.5 9.6 93 0.5 SSE 11 15 6 8 1018.1 - 12.2
14/11:00pm 10.6 7.7 9.7 94 0.5 S 15 22 8 12 1018.2 - 11.2
14/10:45pm 10.7 7.4 9.7 93 0.5 S 17 22 9 12 1018.2 - 9.4
14/10:30pm 10.5 7.2 9.5 93 0.5 S 17 26 9 14 1018.2 - 7.7
14/10:15pm 10.4 7.8 9.4 93 0.5 SSW 13 22 7 12 1018.2 - 6.8
14/09:45pm 10.7 8.6 9.7 93 0.5 WSW 11 15 6 8 1018.4 - 5.0
14/09:30pm 10.8 8.7 9.7 93 0.6 W 11 13 6 7 1018.5 - 5.0
14/09:15pm 10.8 9.1 9.7 93 0.6 W 9 13 5 7 1018.6 - 4.9
14/09:00pm 10.8 9.6 9.7 93 0.6 WNW 6 9 3 5 1018.7 - 4.7
14/08:45pm 10.8 9.4 9.6 92 0.6 NW 7 9 4 5 1018.7 - 4.7
14/08:30pm 10.9 9.5 9.7 92 0.6 NNW 7 9 4 5 1018.7 - 4.7
14/08:15pm 10.9 9.7 9.5 91 0.7 NNW 6 7 3 4 1018.9 - 4.7
14/08:00pm 10.9 9.7 9.5 91 0.7 N 6 9 3 5 1018.9 - 4.5
14/07:45pm 10.9 10.0 9.4 90 0.8 NNW 4 7 2 4 1019.0 - 2.9
14/07:30pm 11.0 10.1 9.3 89 0.9 W 4 7 2 4 1019.0 - 1.4
14/07:15pm 11.2 10.3 9.3 88 1.0 WNW 4 6 2 3 1018.9 - 0.7
14/07:00pm 11.4 10.8 9.1 86 1.2 SW 2 4 1 2 1018.9 - 0.7
14/06:45pm 11.6 10.2 8.9 83 1.4 SW 6 7 3 4 1018.8 - 0.4
14/05:45pm 12.8 10.3 8.1 73 2.3 WSW 11 13 6 7 1018.3 - 0.0
14/05:30pm 13.2 10.3 8.0 71 2.6 SSW 13 19 7 10 1018.2 - 0.0
14/05:15pm 13.3 10.8 8.1 71 2.6 SSW 11 13 6 7 1018.1 - 0.0
14/05:00pm 13.5 11.0 8.2 70 2.7 SSW 11 17 6 9 1018.0 - 0.0
14/04:45pm 13.5 11.0 8.3 71 2.6 SSW 11 17 6 9 1017.9 - 0.0
14/04:15pm 13.6 11.1 8.3 70 2.7 S 11 17 6 9 1017.5 - 0.0
14/04:00pm 13.7 11.2 8.3 70 2.7 S 11 17 6 9 1017.6 - 0.0
14/03:45pm 13.9 11.1 8.4 69 2.8 S 13 20 7 11 1017.6 - 0.0
14/03:30pm 14.0 11.6 8.6 70 2.7 S 11 22 6 12 1017.7 - 0.0
14/03:15pm 14.0 11.6 8.6 70 2.7 SSE 11 15 6 8 1017.8 - 0.0
14/03:00pm 14.0 11.5 8.4 69 2.8 SSE 11 15 6 8 1017.9 - 0.0
14/02:45pm 14.2 11.7 8.3 67 3.0 S 11 17 6 9 1017.8 - 0.0
14/02:30pm 14.2 11.3 8.3 67 3.0 SSE 13 19 7 10 1017.7 - 0.0
14/02:15pm 14.3 11.9 8.7 69 2.8 S 11 20 6 11 1017.7 - 0.0
14/02:00pm 14.1 11.7 8.8 70 2.7 S 11 17 6 9 1017.8 - 0.0
14/01:45pm 14.1 11.3 8.7 70 2.7 S 13 22 7 12 1018.0 - 0.0
14/01:30pm 14.2 11.1 8.8 70 2.8 S 15 22 8 12 1018.1 - 0.0
14/01:15pm 14.3 11.2 8.7 69 2.8 S 15 22 8 12 1018.2 - 0.0
14/01:00pm 14.4 11.2 8.5 67 3.0 S 15 26 8 14 1018.3 - 0.0
14/12:45pm 14.4 11.2 8.5 67 3.0 SSE 15 22 8 12 1018.4 - 0.0
14/12:30pm 14.4 10.4 8.4 67 3.0 SSE 19 30 10 16 1018.5 - 0.0
14/12:15pm 14.2 10.9 8.2 67 3.0 SSE 15 20 8 11 1018.8 - 0.0
14/12:00pm 14.0 11.1 8.0 67 3.0 S 13 22 7 12 1019.0 - 0.0
14/11:45am 14.1 11.1 7.8 66 3.1 S 13 22 7 12 1019.2 - 0.0
14/11:30am 14.1 10.7 7.8 66 3.1 S 15 20 8 11 1019.3 - 0.0
14/11:15am 14.1 11.5 7.8 66 3.1 S 11 17 6 9 1019.6 - 0.0
14/11:00am 13.9 10.9 7.8 66 3.0 SSE 13 22 7 12 1019.8 - 0.0
14/10:45am 13.9 10.9 7.8 66 3.0 SSE 13 20 7 11 1020.0 - 0.0
14/10:30am 13.7 10.3 7.5 66 3.1 SSE 15 28 8 15 1020.2 - 0.0
14/10:15am 13.7 10.7 7.5 66 3.1 SSE 13 22 7 12 1020.2 - 0.0
14/10:00am 13.6 10.6 7.6 67 3.0 S 13 20 7 11 1020.3 - 0.0
14/09:45am 13.4 10.3 7.4 67 3.0 SSE 13 20 7 11 1020.1 - 0.0
14/09:30am 13.4 9.9 7.2 66 3.0 SSE 15 20 8 11 1020.0 - 0.0
14/09:15am 13.7 11.0 7.4 65 3.1 SSE 11 20 6 11 1019.9 - 0.0
14/09:00am 12.8 10.4 7.2 69 2.7 S 9 15 5 8 1019.9 - 0.0
14/08:45am 12.1 8.9 6.7 69 2.6 S 13 22 7 12 1019.8 - 0.0
14/08:30am 11.9 8.3 6.6 70 2.5 SSE 15 22 8 12 1019.6 - 0.0
14/08:15am 11.9 8.2 6.4 69 2.6 SSE 15 22 8 12 1019.6 - 0.0
14/08:00am 11.7 8.0 6.3 69 2.6 SSE 15 20 8 11 1019.7 - 0.0
14/07:45am 11.5 7.8 6.2 70 2.5 SSE 15 20 8 11 1019.8 - 0.0
14/07:30am 11.1 7.4 6.2 72 2.3 S 15 22 8 12 1020.0 - 0.0
14/07:15am 11.0 7.2 6.0 71 2.3 S 15 20 8 11 1019.9 - 0.0
14/07:00am 11.2 7.1 6.0 70 2.4 S 17 20 9 11 1019.6 - 0.0
14/06:45am 11.0 6.9 6.2 72 2.3 S 17 20 9 11 1019.5 - 0.0
14/06:30am 10.3 6.6 6.1 75 2.0 S 15 20 8 11 1019.5 - 0.0
14/06:15am 10.2 6.4 6.0 75 2.0 S 15 20 8 11 1019.3 - 0.0
14/06:00am 9.7 5.6 6.0 78 1.7 S 17 19 9 10 1019.2 - 0.0
14/05:45am 8.7 4.9 5.6 81 1.4 S 15 19 8 10 1019.2 - 0.0
14/05:30am 8.3 4.0 5.2 81 1.4 S 17 20 9 11 1019.2 - 0.0
14/05:15am 8.6 5.0 5.1 79 1.6 S 13 17 7 9 1019.3 - 0.0
14/05:00am 9.0 5.4 5.2 77 1.7 S 13 15 7 8 1019.4 - 0.0
14/04:45am 9.1 5.9 5.1 76 1.8 SSW 11 15 6 8 1019.5 - 0.0
14/04:30am 9.3 6.2 5.6 78 1.7 SSW 11 15 6 8 1019.4 - 0.0
14/04:15am 7.9 4.0 5.4 84 1.1 S 15 17 8 9 1019.4 - 0.0
14/04:00am 7.4 3.4 4.7 83 1.2 S 15 17 8 9 1019.5 - 0.0
14/03:45am 7.8 4.2 4.8 81 1.3 S 13 17 7 9 1019.6 - 0.0
14/03:30am 8.0 4.4 4.8 80 1.4 S 13 15 7 8 1019.9 - 0.0
14/03:15am 8.2 4.2 4.7 78 1.6 SSW 15 17 8 9 1019.8 - 0.0
14/03:00am 8.3 4.6 4.7 78 1.6 SW 13 17 7 9 1019.8 - 0.0
14/02:45am 9.3 5.8 5.5 77 1.7 SW 13 17 7 9 1019.8 - 0.0
14/02:30am 7.9 4.4 5.6 85 1.0 SSW 13 15 7 8 1019.9 - 0.0
14/02:15am 7.3 3.3 4.9 85 1.1 S 15 17 8 9 1019.9 - 0.0
14/02:00am 7.5 3.9 5.0 84 1.1 S 13 15 7 8 1019.9 - 0.0
14/01:45am 7.7 4.5 5.0 83 1.2 S 11 13 6 7 1019.8 - 0.0
14/01:30am 7.6 4.4 5.1 84 1.1 S 11 15 6 8 1019.9 - 0.0
14/01:15am 7.3 3.6 4.7 83 1.1 S 13 15 7 8 1020.2 - 0.0
14/01:00am 7.6 4.0 4.9 83 1.2 S 13 15 7 8 1020.1 - 0.0
14/12:30am 8.0 4.3 4.7 80 1.5 S 13 15 7 8 1020.3 - 0.0
14/12:15am 8.4 4.3 4.6 77 1.7 S 15 17 8 9 1020.4 - 0.0
14/12:00am 8.9 6.0 4.5 74 2.0 S 9 15 5 8 1020.4 - 0.0
 
Date/Time
EST
Temp
°C
App
Temp
°C
Dew
Point
°C
Rel
Hum
%
Delta-T
°C
Wind Press
QNH
hPa
Press
MSL
hPa
Rain since
9am
mm
Dir  Spd
km/h
Gust
km/h
Spd
kts
Gust
kts
13/11:45pm 9.4 6.1 4.5 71 2.2 SSW 11 13 6 7 1020.6 - 0.0
13/11:30pm 9.7 6.4 4.4 69 2.4 SSW 11 13 6 7 1020.8 - 0.0
13/11:15pm 9.6 6.3 4.5 70 2.3 SSW 11 13 6 7 1020.8 - 0.0
13/11:00pm 10.0 7.5 4.6 69 2.4 SSW 7 11 4 6 1020.8 - 0.0
13/10:45pm 10.2 6.5 4.6 68 2.5 SSW 13 17 7 9 1021.0 - 0.0
13/10:30pm 9.4 5.7 4.6 72 2.2 SSW 13 15 7 8 1021.1 - 0.0
13/10:15pm 9.3 5.6 4.5 72 2.1 S 13 15 7 8 1021.0 - 0.0
13/10:00pm 8.8 4.7 4.6 75 1.9 SSW 15 17 8 9 1021.0 - 0.0
13/09:45pm 8.6 5.3 4.5 75 1.8 SSW 11 13 6 7 1021.0 - 0.0
13/09:30pm 8.9 5.2 4.5 74 2.0 S 13 15 7 8 1020.9 - 0.0
13/09:15pm 9.3 5.5 4.1 70 2.3 SSW 13 15 7 8 1021.1 - 0.0
13/09:00pm 9.4 5.6 3.9 68 2.4 SSW 13 15 7 8 1021.1 - 0.0
13/08:45pm 9.7 6.3 3.8 66 2.6 SSW 11 15 6 8 1021.3 - 0.0
13/08:30pm 9.9 6.5 3.8 66 2.7 SSW 11 15 6 8 1021.3 - 0.0
13/08:15pm 10.2 6.0 3.9 65 2.8 SW 15 19 8 10 1021.2 - 0.0
13/08:00pm 10.2 6.0 4.0 65 2.8 SSW 15 20 8 11 1021.1 - 0.0
13/07:45pm 10.3 5.8 4.2 66 2.7 SW 17 20 9 11 1021.0 - 0.0
13/07:30pm 10.1 5.6 4.4 68 2.6 SSW 17 22 9 12 1020.8 - 0.0
13/07:15pm 9.8 5.7 4.6 70 2.3 SSW 15 19 8 10 1020.8 - 0.0
13/07:00pm 10.3 6.2 4.6 68 2.6 SSW 15 19 8 10 1020.8 - 0.0
13/06:45pm 10.7 5.9 4.5 65 2.8 SW 19 20 10 11 1020.6 - 0.0
13/06:30pm 10.9 6.5 4.5 64 2.9 SW 17 20 9 11 1020.6 - 0.0
13/06:15pm 11.2 6.8 4.6 64 3.0 SW 17 20 9 11 1020.6 - 0.0
13/05:45pm 11.4 7.0 5.0 65 2.9 WSW 17 20 9 11 1020.6 - 0.0
13/05:30pm 11.4 7.4 4.9 64 3.0 SW 15 17 8 9 1020.4 - 0.0
13/05:00pm 11.6 8.0 5.0 64 3.0 SW 13 15 7 8 1020.2 - 0.0
13/04:45pm 12.1 8.1 5.1 62 3.2 WSW 15 17 8 9 1020.4 - 0.0
13/04:30pm 12.6 9.1 5.5 62 3.3 WSW 13 17 7 9 1020.2 - 0.0
13/04:15pm 12.8 10.1 5.6 61 3.4 WSW 9 13 5 7 1020.1 - 0.0
13/04:00pm 13.1 10.0 5.5 60 3.6 SSW 11 13 6 7 1019.8 - 0.0
13/03:30pm 13.4 10.7 5.6 59 3.7 SW 9 13 5 7 1019.8 - 0.0
13/03:15pm 13.5 10.8 5.6 59 3.7 SSW 9 13 5 7 1019.8 - 0.0
13/03:00pm 13.7 10.5 5.3 57 4.0 SSW 11 17 6 9 1019.8 - 0.0
13/02:45pm 14.1 11.8 5.8 57 4.0 S 7 13 4 7 1019.6 - 0.0
13/02:30pm 14.1 11.0 5.5 56 4.1 SSW 11 17 6 9 1019.4 - 0.0
13/02:15pm 14.1 10.9 5.3 55 4.2 SSW 11 15 6 8 1019.2 - 0.0
13/02:00pm 14.5 11.4 5.5 54 4.3 S 11 17 6 9 1019.2 - 0.0
13/01:30pm 14.8 11.6 5.2 52 4.6 SSW 11 17 6 9 1019.3 - 0.0
13/01:15pm 14.4 11.2 5.2 54 4.4 SSW 11 20 6 11 1019.3 - 0.0
13/01:00pm 14.3 10.6 4.7 52 4.5 SW 13 20 7 11 1019.2 - 0.0
13/12:45pm 14.3 10.6 4.5 51 4.6 SW 13 22 7 12 1019.3 - 0.0
13/12:30pm 14.2 10.1 4.4 51 4.6 SW 15 22 8 12 1019.5 - 0.0
13/12:15pm 13.8 9.3 4.3 52 4.4 SW 17 22 9 12 1019.8 - 0.0
13/12:00pm 13.5 9.3 4.0 52 4.3 SW 15 22 8 12 1019.7 - 0.0
13/11:30am 13.0 8.8 3.7 53 4.2 SW 15 24 8 13 1020.0 - 0.0
13/11:15am 12.6 8.4 3.6 54 4.1 SW 15 24 8 13 1020.2 - 0.0
13/10:45am 12.3 8.4 3.2 54 4.1 SW 13 22 7 12 1020.6 - 0.0
13/10:30am 11.8 7.5 3.0 55 3.9 SW 15 26 8 14 1020.8 - 0.0
13/10:15am 11.3 6.1 2.7 55 3.8 SW 19 30 10 16 1020.9 - 0.0
13/09:45am 10.3 5.4 2.2 57 3.5 SW 17 26 9 14 1020.7 - 0.0
13/09:30am 9.6 4.1 1.8 58 3.3 SW 20 30 11 16 1020.6 - 0.0
13/09:15am 9.4 3.9 1.7 58 3.2 SW 20 30 11 16 1020.4 - 0.0
13/09:00am 9.3 3.7 1.4 58 3.3 SW 20 30 11 16 1020.3 - 0.0
13/08:45am 9.0 3.4 1.4 59 3.1 SW 20 30 11 16 1020.3 - 0.0
13/08:30am 8.6 3.2 1.1 59 3.1 SW 19 28 10 15 1020.2 - 0.0
13/08:15am 8.1 3.0 0.9 60 2.9 SSW 17 26 9 14 1020.0 - 0.0
13/08:00am 7.7 2.6 0.5 60 2.9 SSW 17 24 9 13 1020.1 - 0.0
13/07:45am 7.4 1.3 0.3 60 2.8 SW 22 32 12 17 1020.3 - 0.0
13/07:30am 7.1 0.6 0.0 60 2.8 SW 24 33 13 18 1020.5 - 0.0
13/07:15am 7.1 -0.2 0.0 60 2.8 SW 28 39 15 21 1020.6 - 0.0
13/06:45am 7.1 0.5 -0.1 60 2.8 SW 24 35 13 19 1020.4 - 0.0
13/06:30am 7.2 0.6 -0.2 59 2.9 SW 24 33 13 18 1020.1 - 0.0
13/06:15am 7.2 -0.1 -0.2 59 2.9 SW 28 41 15 22 1020.0 - 0.0
13/06:00am 6.9 -0.1 -0.3 60 2.8 SW 26 39 14 21 1019.6 - 0.0
13/05:45am 7.0 0.8 -0.4 59 2.9 SW 22 33 12 18 1019.3 - 0.0
13/05:30am 7.1 0.9 -0.5 58 2.9 SW 22 30 12 16 1019.0 - 0.0
13/05:15am 7.2 0.6 -0.5 58 3.0 SW 24 35 13 19 1018.8 - 0.0
13/05:00am 7.4 0.4 -0.5 57 3.1 SW 26 35 14 19 1018.6 - 0.0
13/04:45am 7.7 1.1 -0.5 56 3.2 SW 24 33 13 18 1018.5 - 0.0
13/04:30am 7.8 1.6 -0.6 55 3.3 SW 22 30 12 16 1018.6 - 0.0
13/04:15am 7.7 1.1 -0.5 56 3.2 SW 24 33 13 18 1018.6 - 0.0
13/04:00am 7.7 0.7 -0.7 55 3.3 SW 26 35 14 19 1018.6 - 0.0
13/03:45am 7.6 0.6 -0.8 55 3.3 SW 26 35 14 19 1018.5 - 0.0
13/03:30am 7.4 1.1 -0.7 56 3.1 SW 22 33 12 18 1018.5 - 0.0
13/03:15am 7.3 1.6 -0.8 56 3.1 SW 19 26 10 14 1018.4 - 0.0
13/03:00am 7.3 1.6 -0.9 56 3.2 SW 19 26 10 14 1018.5 - 0.0
13/02:45am 7.2 1.3 -0.9 56 3.1 SW 20 28 11 15 1018.8 - 0.0
13/02:30am 7.1 0.8 -1.1 56 3.1 SW 22 30 12 16 1018.8 - 0.0
13/02:15am 7.0 0.3 -1.2 56 3.1 SW 24 30 13 16 1018.8 - 0.0
13/02:00am 7.0 0.7 -1.3 55 3.2 SW 22 28 12 15 1018.7 - 0.0
13/01:45am 7.3 0.2 -1.3 54 3.3 SW 26 30 14 16 1018.7 - 0.0
13/01:30am 7.4 0.3 -1.3 54 3.3 SW 26 32 14 17 1018.7 - 0.0
13/01:00am 7.5 0.8 -1.3 53 3.4 SW 24 30 13 16 1018.8 - 0.0
13/12:45am 7.4 0.6 -1.5 53 3.4 SW 24 30 13 16 1018.7 - 0.0
13/12:30am 7.6 1.2 -1.6 52 3.5 SW 22 30 12 16 1018.8 - 0.0
13/12:15am 7.7 0.9 -1.8 51 3.6 SW 24 33 13 18 1018.7 - 0.0
13/12:00am 7.9 1.5 -2.0 49 3.7 SW 22 26 12 14 1018.5 - 0.0
 
Date/Time
EST
Temp
°C
App
Temp
°C
Dew
Point
°C
Rel
Hum
%
Delta-T
°C
Wind Press
QNH
hPa
Press
MSL
hPa
Rain since
9am
mm
Dir  Spd
km/h
Gust
km/h
Spd
kts
Gust
kts
12/11:45pm 8.3 1.5 -2.1 48 3.9 SW 24 30 13 16 1018.6 - 0.0
12/11:30pm 8.4 1.2 -2.1 47 4.0 SW 26 30 14 16 1018.6 - 0.0
12/11:15pm 8.0 0.4 -2.0 49 3.8 SW 28 32 15 17 1018.8 - 0.0
12/11:00pm 7.9 1.1 -2.1 49 3.8 SW 24 28 13 15 1018.8 - 0.0
12/10:45pm 8.3 1.4 -2.3 47 4.0 SW 24 30 13 16 1018.6 - 0.0
12/10:30pm 8.7 1.5 -2.4 45 4.2 SSW 26 33 14 18 1018.6 - 0.0
12/10:15pm 8.7 1.1 -2.3 46 4.2 SSW 28 33 15 18 1018.5 - 0.0
12/10:00pm 8.6 1.8 -2.2 46 4.1 SW 24 28 13 15 1018.4 - 0.0
12/09:45pm 8.7 2.2 -2.2 46 4.1 SW 22 26 12 14 1018.3 - 0.0
12/09:30pm 9.4 3.3 -2.5 43 4.5 SW 20 26 11 14 1018.0 - 0.0
12/09:00pm 9.9 4.0 -2.6 41 4.8 SSW 19 28 10 15 1017.6 - 0.0
12/08:45pm 10.4 4.8 -2.7 40 5.0 SSW 17 30 9 16 1017.4 - 0.0
12/08:30pm 10.5 4.4 -2.5 40 5.0 S 20 30 11 16 1017.1 - 0.0
12/08:00pm 10.5 4.5 -1.6 43 4.7 SSW 20 28 11 15 1016.7 - 0.0
12/07:45pm 10.5 4.5 -1.6 43 4.7 SSW 20 26 11 14 1016.5 - 0.0
12/07:30pm 10.5 4.7 -1.4 43 4.7 SSW 19 28 10 15 1016.3 - 0.0
12/07:15pm 10.4 5.1 -0.7 46 4.4 S 17 26 9 14 1016.0 - 0.0
12/07:00pm 10.5 4.9 0.0 48 4.3 S 19 28 10 15 1015.7 - 0.0
12/06:45pm 10.4 5.4 1.4 53 3.8 S 17 22 9 12 1015.5 - 0.0
12/06:30pm 10.6 5.7 2.0 55 3.7 S 17 20 9 11 1015.2 - 0.0
12/06:15pm 10.4 5.7 2.9 59 3.3 S 17 28 9 15 1014.8 - 0.0
12/06:00pm 9.7 5.2 4.3 69 2.4 S 17 22 9 12 1014.5 - 0.0
12/05:45pm 10.3 6.6 4.7 68 2.5 S 13 17 7 9 1014.3 - 0.0
12/05:30pm 11.0 7.3 4.7 65 2.9 S 13 17 7 9 1014.0 - 0.0
12/05:15pm 11.8 7.7 4.6 61 3.3 S 15 26 8 14 1013.8 - 0.0
12/05:00pm 12.2 7.8 4.6 59 3.5 SSW 17 22 9 12 1013.4 - 0.0
12/04:45pm 12.6 7.8 4.6 58 3.7 SSW 19 28 10 15 1013.0 - 0.0
12/04:30pm 12.8 7.5 4.9 58 3.7 SSW 22 35 12 19 1012.7 - 0.0
12/04:15pm 13.2 7.9 5.2 58 3.7 SSW 22 30 12 16 1012.4 - 0.0
12/04:00pm 13.4 8.2 5.3 58 3.8 SSW 22 35 12 19 1012.0 - 0.0
12/03:45pm 13.7 8.9 5.4 57 3.9 SSW 20 33 11 18 1011.7 - 0.0
12/03:30pm 13.4 8.7 5.9 60 3.6 SSW 20 30 11 16 1011.5 - 0.0
12/03:15pm 12.8 7.3 6.0 63 3.2 S 24 35 13 19 1011.2 - 0.0
12/03:00pm 12.3 8.0 7.0 70 2.6 S 19 39 10 21 1011.0 - 0.0
12/02:45pm 11.1 5.0 6.5 73 2.2 S 28 44 15 24 1010.9 - 0.0
12/02:30pm 11.2 5.0 6.0 70 2.4 S 28 46 15 25 1010.5 - 0.0
12/02:15pm 11.6 5.2 5.4 65 2.9 SSE 28 46 15 25 1010.0 - 0.0
12/02:00pm 13.0 6.6 5.3 59 3.6 SSE 28 46 15 25 1009.6 - 0.0
12/01:45pm 16.2 8.7 3.7 43 5.8 SSW 32 54 17 29 1009.2 - 0.0

Other formats

Comma delimited format used in spreadsheet applications
http://www.bom.gov.au/fwo/IDN60801/IDN60801.95757.axf

JavaScript Object Notation format (JSON) in row-major order
http://www.bom.gov.au/fwo/IDN60801/IDN60801.95757.json

Data quality

Most of these data are generated automatically and are frequently updated. Quality checks on data are not normally performed. It is possible for incorrect values to appear. Refer to information at About Latest Weather Observations and please check the disclaimer before using these data.